Time;durP1;ratioP1;P1;durP2;ratioP2;P2;SDS_P1;SDS_P2;PMS_P1;PMS_P2;Temp;Humidity;BMP_temperature;BMP_pressure;BME280_temperature;BME280_humidity;BME280_pressure;Samples;Min_cycle;Max_cycle;Signal;HPM_P1;HPM_P2
2022/06/05 00:01:30;;;;;;;8.60;7.20;;;;;;;19.08;55.33;101479.28;5011175;28;20025;-90
2022/06/05 00:04:27;;;;;;;10.95;7.43;;;;;;;19.03;55.60;101482.34;5009724;28;20427;-89
2022/06/05 00:07:17;;;;;;;7.30;6.57;;;;;;;18.99;55.93;101480.00;5008171;28;20021;-91
2022/06/05 00:10:07;;;;;;;7.90;7.07;;;;;;;18.96;56.06;101474.81;5009817;28;20388;-90
2022/06/05 00:12:46;;;;;;;7.50;6.72;;;;;;;18.94;56.30;101466.84;5009823;28;20022;-93
2022/06/05 00:15:11;;;;;;;8.98;7.00;;;;;;;18.89;56.21;101452.84;5010350;28;20076;-91
2022/06/05 00:17:37;;;;;;;7.85;7.10;;;;;;;18.87;56.77;101455.66;5007905;28;20056;-90
2022/06/05 00:20:06;;;;;;;7.40;6.70;;;;;;;18.82;56.48;101457.00;5010393;28;20034;-93
2022/06/05 00:22:31;;;;;;;8.32;6.68;;;;;;;18.84;56.79;101471.22;5009977;28;20030;-92
2022/06/05 00:24:56;;;;;;;7.45;6.75;;;;;;;18.87;57.06;101461.06;5010203;28;20379;-90
2022/06/05 00:27:46;;;;;;;13.38;7.47;;;;;;;18.85;56.07;101454.94;5008857;28;20034;-90
2022/06/05 00:30:21;;;;;;;7.82;7.05;;;;;;;18.76;56.62;101452.91;5010162;28;20483;-91
2022/06/05 00:33:08;;;;;;;8.02;6.72;;;;;;;18.70;56.39;101450.69;5010435;28;20034;-91
2022/06/05 00:35:41;;;;;;;9.10;6.93;;;;;;;18.71;57.09;101447.00;5010268;28;20053;-91
2022/06/05 00:38:13;;;;;;;7.80;7.03;;;;;;;18.64;57.36;101448.41;4995949;28;20117;-90
2022/06/05 00:41:12;;;;;;;8.02;7.22;;;;;;;18.62;57.02;101448.53;4990796;28;20049;-91
2022/06/05 00:43:37;;;;;;;7.80;7.07;;;;;;;18.55;57.56;101443.72;4990007;28;20040;-90
2022/06/05 00:46:03;;;;;;;7.28;6.68;;;;;;;18.48;57.59;101443.31;4992958;28;20104;-91
2022/06/05 00:48:29;;;;;;;7.78;7.05;;;;;;;18.46;58.06;101441.72;5009022;28;20542;-90
2022/06/05 00:50:54;;;;;;;8.35;7.50;;;;;;;18.42;58.11;101439.22;5008762;28;20553;-90
2022/06/05 00:53:19;;;;;;;8.20;7.38;;;;;;;18.41;57.75;101431.28;5008689;28;20022;-90
2022/06/05 00:55:50;;;;;;;9.98;7.78;;;;;;;18.38;58.22;101426.09;5008116;28;20026;-90
2022/06/05 00:58:18;;;;;;;8.27;7.43;;;;;;;18.38;58.28;101426.97;5009093;28;20057;-90
2022/06/05 01:00:48;;;;;;;10.48;7.05;;;;;;;18.38;58.44;101436.88;5008647;28;20033;-90
2022/06/05 01:03:15;;;;;;;7.97;7.28;;;;;;;18.32;58.50;101438.22;5009468;28;20483;-91
2022/06/05 01:05:40;;;;;;;8.60;7.80;;;;;;;18.30;58.43;101434.75;5007354;28;20109;-90
2022/06/05 01:08:08;;;;;;;8.77;7.15;;;;;;;18.28;58.63;101428.63;5008403;28;20037;-90
2022/06/05 01:10:33;;;;;;;8.20;7.45;;;;;;;18.32;58.48;101431.97;5009047;28;20022;-90
2022/06/05 01:13:15;;;;;;;8.95;7.82;;;;;;;18.32;58.48;101430.13;5008874;28;20548;-89
2022/06/05 01:15:57;;;;;;;9.02;7.70;;;;;;;18.33;58.75;101434.53;5007412;28;20028;-90
2022/06/05 01:18:46;;;;;;;9.23;7.35;;;;;;;18.33;58.57;101429.16;5009080;28;20030;-90
2022/06/05 01:21:39;;;;;;;8.50;7.80;;;;;;;18.44;57.93;101467.94;5009076;28;20038;-91
2022/06/05 01:24:35;;;;;;;8.05;7.25;;;;;;;18.47;58.02;101489.25;5008962;28;20030;-91
2022/06/05 01:27:06;;;;;;;8.63;7.72;;;;;;;18.44;57.89;101458.00;5007443;28;20100;-90
2022/06/05 01:29:59;;;;;;;8.07;7.28;;;;;;;18.53;57.72;101445.69;5008924;28;20041;-90
2022/06/05 01:32:36;;;;;;;9.98;8.20;;;;;;;18.55;57.75;101467.97;5008663;28;20050;-92
2022/06/05 01:35:14;;;;;;;8.35;7.53;;;;;;;18.57;57.90;101477.69;5008809;28;20033;-91
2022/06/05 01:37:46;;;;;;;8.38;7.40;;;;;;;18.57;57.61;101450.72;5008403;28;20364;-90
2022/06/05 01:40:18;;;;;;;10.77;9.07;;;;;;;18.54;58.31;101431.22;5009312;28;20104;-90
2022/06/05 01:42:49;;;;;;;9.27;8.20;;;;;;;18.56;58.21;101449.00;5008542;28;20088;-91
2022/06/05 01:45:23;;;;;;;9.07;8.02;;;;;;;18.57;58.08;101455.25;5007797;28;20109;-90
2022/06/05 01:47:53;;;;;;;9.15;7.28;;;;;;;18.55;58.04;101447.25;5008759;28;20026;-91
2022/06/05 01:50:19;;;;;;;8.27;7.57;;;;;;;18.59;58.49;101442.50;5040383;28;20036;-90
2022/06/05 01:53:01;;;;;;;8.75;7.65;;;;;;;18.54;58.30;101428.53;5013118;28;20030;-89
2022/06/05 01:55:42;;;;;;;8.75;7.90;;;;;;;18.58;58.18;101427.31;5012157;28;20487;-90
2022/06/05 01:58:11;;;;;;;11.05;8.18;;;;;;;18.52;58.79;101414.28;5012372;28;20017;-91
2022/06/05 02:00:36;;;;;;;9.90;8.02;;;;;;;18.48;58.60;101407.44;5012450;28;20033;-90
2022/06/05 02:03:12;;;;;;;8.73;7.93;;;;;;;18.41;58.63;101397.09;5012610;28;20026;-90
2022/06/05 02:05:56;;;;;;;9.50;8.18;;;;;;;18.39;58.71;101384.69;5010224;28;20105;-90
2022/06/05 02:08:48;;;;;;;8.50;7.70;;;;;;;18.36;59.09;101384.94;5012559;28;20113;-90
2022/06/05 02:11:19;;;;;;;9.60;8.20;;;;;;;18.25;59.99;101372.25;5012237;28;20472;-90
2022/06/05 02:13:44;;;;;;;9.05;8.13;;;;;;;18.17;60.36;101353.13;5012314;28;20030;-91
2022/06/05 02:16:10;;;;;;;9.63;8.52;;;;;;;18.10;60.76;101349.16;5010887;28;20048;-90
2022/06/05 02:18:36;;;;;;;12.43;8.50;;;;;;;18.04;61.12;101347.78;5010376;28;20033;-90
2022/06/05 02:21:02;;;;;;;9.48;8.57;;;;;;;18.00;60.92;101342.75;5012088;28;20030;-91
2022/06/05 02:23:33;;;;;;;9.20;8.40;;;;;;;18.01;60.84;101341.75;5010713;28;20480;-90
2022/06/05 02:26:00;;;;;;;10.98;8.90;;;;;;;17.98;61.10;101332.09;5011249;28;20376;-90
2022/06/05 02:28:26;;;;;;;10.30;8.75;;;;;;;17.95;61.01;101329.63;5012449;28;20029;-90
2022/06/05 02:30:54;;;;;;;8.90;8.10;;;;;;;17.95;60.99;101326.06;5012160;28;20046;-90
2022/06/05 02:33:50;;;;;;;9.38;8.38;;;;;;;17.87;60.66;101330.19;5010630;28;20037;-90
2022/06/05 02:36:21;;;;;;;11.93;9.50;;;;;;;17.86;60.92;101324.91;5005158;28;20112;-91
2022/06/05 02:39:03;;;;;;;10.93;9.25;;;;;;;17.80;61.09;101318.13;5012294;28;20029;-89
2022/06/05 02:41:46;;;;;;;10.73;8.73;;;;;;;17.81;60.91;101317.19;5013100;28;20026;-89
2022/06/05 02:44:30;;;;;;;11.23;9.88;;;;;;;17.76;60.82;101305.00;5014165;28;20030;-90
2022/06/05 02:47:32;;;;;;;10.57;9.57;;;;;;;17.76;60.81;101303.19;5010818;28;20116;-92
2022/06/05 02:50:22;;;;;;;9.40;8.50;;;;;;;17.71;60.77;101302.63;4989567;28;20446;-89
2022/06/05 02:52:50;;;;;;;9.85;8.13;;;;;;;17.70;61.02;101284.75;5011113;28;20030;-90
2022/06/05 02:55:20;;;;;;;9.68;8.68;;;;;;;17.65;61.01;101277.03;5009975;28;20072;-90
2022/06/05 02:57:45;;;;;;;9.65;8.60;;;;;;;17.59;61.29;101282.00;5011199;28;20033;-90
2022/06/05 03:00:17;;;;;;;8.93;8.02;;;;;;;17.48;61.35;101268.47;5011128;28;20030;-91
2022/06/05 03:05:26;;;;;;;10.02;8.38;;;;;;;17.43;61.15;101268.78;5003924;28;20104;-88
2022/06/05 03:07:52;;;;;;;8.13;7.43;;;;;;;17.40;61.32;101266.34;4990818;28;20467;-90
2022/06/05 03:10:18;;;;;;;8.65;7.85;;;;;;;17.34;61.07;101269.47;4991538;28;20022;-89
2022/06/05 03:12:43;;;;;;;8.98;7.95;;;;;;;17.29;61.29;101263.56;4991324;28;20030;-89
2022/06/05 03:15:09;;;;;;;8.40;7.47;;;;;;;17.26;61.21;101261.94;4997885;28;20395;-89
2022/06/05 03:17:34;;;;;;;8.32;7.20;;;;;;;17.19;61.34;101247.25;5010745;28;20045;-89
2022/06/05 03:20:00;;;;;;;9.02;8.05;;;;;;;17.11;61.37;101242.41;5010859;28;20034;-87
2022/06/05 03:22:26;;;;;;;8.52;7.13;;;;;;;17.10;61.51;101242.53;5011149;28;20030;-89
2022/06/05 03:24:52;;;;;;;9.15;7.80;;;;;;;17.01;61.19;101232.41;5009043;28;20288;-89
2022/06/05 03:27:19;;;;;;;7.88;7.07;;;;;;;16.99;61.21;101237.06;5010763;28;20111;-90
2022/06/05 03:29:44;;;;;;;9.02;7.03;;;;;;;16.96;61.26;101234.56;5011473;28;20286;-91
2022/06/05 03:32:10;;;;;;;8.07;7.35;;;;;;;16.89;61.07;101235.03;5009439;28;20046;-89
2022/06/05 03:34:35;;;;;;;9.57;7.25;;;;;;;16.85;60.85;101233.53;4994139;28;20060;-88
2022/06/05 03:37:00;;;;;;;7.85;7.13;;;;;;;16.80;61.17;101246.41;5010347;28;20025;-89
2022/06/05 03:39:26;;;;;;;8.75;6.80;;;;;;;16.81;60.79;101248.16;5010765;28;20053;-89
2022/06/05 03:41:51;;;;;;;9.88;7.80;;;;;;;16.75;60.84;101242.34;5009939;28;20113;-89
2022/06/05 03:44:17;;;;;;;8.23;7.43;;;;;;;16.75;60.82;101240.50;5009330;28;20527;-89
2022/06/05 03:46:42;;;;;;;8.43;7.25;;;;;;;16.78;60.96;101242.97;4990140;28;20499;-90
2022/06/05 03:49:09;;;;;;;10.40;7.10;;;;;;;16.79;60.72;101251.91;4989566;28;20505;-89
2022/06/05 03:51:34;;;;;;;7.90;7.10;;;;;;;16.84;60.73;101242.53;4990255;28;20034;-89
2022/06/05 03:54:00;;;;;;;7.57;6.70;;;;;;;16.83;60.53;101253.41;4991119;28;20014;-90
2022/06/05 03:56:26;;;;;;;8.38;6.80;;;;;;;16.79;60.31;101260.81;5010693;28;20491;-90
2022/06/05 03:58:53;;;;;;;7.68;6.97;;;;;;;16.80;60.53;101257.16;5008301;28;20478;-90
2022/06/05 04:01:20;;;;;;;8.55;7.65;;;;;;;16.73;60.62;101260.41;5010296;28;20032;-89
2022/06/05 04:03:46;;;;;;;7.97;7.20;;;;;;;16.67;60.60;101258.97;5010210;28;20026;-89
2022/06/05 04:06:14;;;;;;;8.57;7.55;;;;;;;16.69;60.60;101260.59;5009353;28;20070;-90
2022/06/05 04:08:40;;;;;;;10.32;7.38;;;;;;;16.69;60.39;101249.84;5010306;28;20298;-90
2022/06/05 04:11:07;;;;;;;9.20;7.18;;;;;;;16.73;60.45;101241.59;5010959;28;20072;-90
2022/06/05 04:13:32;;;;;;;8.65;6.97;;;;;;;16.74;60.47;101236.09;5010205;28;20049;-90
2022/06/05 04:15:57;;;;;;;9.65;7.20;;;;;;;16.77;60.46;101248.47;5008753;28;20187;-89
2022/06/05 04:18:23;;;;;;;11.25;7.50;;;;;;;16.71;60.34;101233.59;5009922;28;20032;-89
2022/06/05 04:20:48;;;;;;;8.02;6.65;;;;;;;16.65;60.33;101236.72;5009875;28;20029;-90
2022/06/05 04:23:13;;;;;;;7.90;7.03;;;;;;;16.72;60.14;101235.34;5009792;28;20049;-90
2022/06/05 04:25:42;;;;;;;7.95;7.15;;;;;;;16.70;60.40;101237.25;5006389;28;20030;-89
2022/06/05 04:28:08;;;;;;;8.00;7.10;;;;;;;16.68;60.28;101237.38;5009243;28;20111;-89
2022/06/05 04:30:40;;;;;;;7.13;6.43;;;;;;;16.67;60.00;101234.78;5009317;28;20476;-89
2022/06/05 04:33:06;;;;;;;8.93;7.05;;;;;;;16.70;60.22;101239.94;4989911;28;20041;-90
2022/06/05 04:35:32;;;;;;;7.85;6.85;;;;;;;16.69;60.02;101246.28;5004226;28;20041;-91
2022/06/05 04:37:57;;;;;;;7.57;6.80;;;;;;;16.69;60.09;101238.22;5009520;28;20033;-89
2022/06/05 04:40:23;;;;;;;8.52;7.30;;;;;;;16.73;60.20;101245.13;5009923;28;20026;-91
2022/06/05 04:42:48;;;;;;;9.23;7.45;;;;;;;16.72;60.00;101239.81;5009271;28;20080;-89
2022/06/05 04:45:14;;;;;;;6.97;6.28;;;;;;;16.69;60.16;101228.34;5008312;28;20030;-91
2022/06/05 04:47:40;;;;;;;9.27;7.22;;;;;;;16.63;60.11;101226.06;5009709;28;20030;-90
2022/06/05 04:50:07;;;;;;;8.85;7.18;;;;;;;16.64;60.54;101235.00;5010305;28;20399;-89
2022/06/05 04:52:32;;;;;;;10.43;6.85;;;;;;;16.62;60.40;101234.25;5010222;28;20049;-91
2022/06/05 04:54:58;;;;;;;8.35;6.82;;;;;;;16.65;60.30;101232.19;5009794;28;20111;-91
2022/06/05 04:57:23;;;;;;;7.70;6.85;;;;;;;16.63;60.25;101241.31;5011335;28;20033;-91
2022/06/05 04:59:48;;;;;;;11.23;6.45;;;;;;;16.59;60.31;101242.50;5009672;28;20115;-90
2022/06/05 05:02:14;;;;;;;8.98;7.22;;;;;;;16.58;60.69;101241.66;5009460;28;20038;-90
2022/06/05 05:04:39;;;;;;;7.80;6.90;;;;;;;16.61;60.57;101252.19;5007478;28;20026;-90
2022/06/05 05:07:04;;;;;;;8.70;6.78;;;;;;;16.66;60.47;101254.56;5008987;28;20446;-89
2022/06/05 05:09:30;;;;;;;9.38;7.22;;;;;;;16.57;60.55;101245.31;5009037;28;20029;-90
2022/06/05 05:11:55;;;;;;;9.88;7.30;;;;;;;16.69;60.61;101262.41;5008230;28;20119;-89
2022/06/05 05:14:21;;;;;;;9.63;6.82;;;;;;;16.69;60.34;101249.84;5007363;28;20108;-90
2022/06/05 05:16:46;;;;;;;8.68;7.30;;;;;;;16.66;60.29;101252.72;5008422;28;20492;-90
2022/06/05 05:19:12;;;;;;;8.80;7.03;;;;;;;16.76;60.18;101263.75;5008830;28;20483;-91
2022/06/05 05:21:37;;;;;;;9.18;7.28;;;;;;;16.76;60.42;101254.78;5008392;28;20160;-90
2022/06/05 05:24:03;;;;;;;7.35;6.65;;;;;;;16.90;60.43;101252.88;5007321;28;20057;-90
2022/06/05 05:26:31;;;;;;;8.30;7.10;;;;;;;16.88;60.40;101244.03;5011299;28;20026;-90
2022/06/05 05:28:57;;;;;;;9.75;6.72;;;;;;;16.91;60.05;101246.50;5015107;28;20156;-90
2022/06/05 05:31:30;;;;;;;9.55;7.07;;;;;;;16.97;60.63;101257.78;5015518;28;20120;-90
2022/06/05 05:33:57;;;;;;;8.10;7.25;;;;;;;17.06;60.71;101255.34;5014400;28;20060;-91
2022/06/05 05:36:24;;;;;;;8.13;7.18;;;;;;;17.08;60.25;101252.53;5015166;28;20497;-90
2022/06/05 05:44:20;;;;;;;8.18;6.82;;;;;;;17.14;60.56;101261.03;5013924;28;20415;-90
2022/06/05 05:46:46;;;;;;;7.43;6.68;;;;;;;17.16;60.58;101248.31;5014639;28;20034;-90
2022/06/05 05:49:13;;;;;;;9.43;7.40;;;;;;;17.13;60.50;101248.53;5017767;28;20520;-90
2022/06/05 05:51:38;;;;;;;9.02;7.30;;;;;;;17.16;60.16;101242.06;5014591;28;20026;-89
2022/06/05 05:54:05;;;;;;;8.73;7.13;;;;;;;17.12;60.45;101236.06;5013444;28;20034;-90
2022/06/05 05:56:30;;;;;;;9.13;8.13;;;;;;;17.14;60.63;101236.81;5014408;28;20109;-89
2022/06/05 05:58:56;;;;;;;10.85;8.07;;;;;;;17.17;60.46;101235.72;5015250;28;20109;-89
2022/06/05 06:01:21;;;;;;;9.57;7.20;;;;;;;17.23;60.41;101232.59;5015122;28;20026;-91
2022/06/05 06:03:47;;;;;;;7.75;6.95;;;;;;;17.28;60.47;101224.19;5013239;28;20030;-91
2022/06/05 06:06:12;;;;;;;9.50;8.00;;;;;;;17.36;60.44;101225.34;5015454;28;20025;-90
2022/06/05 06:08:38;;;;;;;8.43;7.47;;;;;;;17.45;60.73;101221.13;5014963;28;20029;-89
2022/06/05 06:11:04;;;;;;;7.95;7.15;;;;;;;17.51;60.08;101209.03;5015205;28;20026;-91
2022/06/05 06:13:29;;;;;;;8.88;7.72;;;;;;;17.59;60.19;101206.63;5013779;28;20071;-89
2022/06/05 06:15:55;;;;;;;9.18;8.27;;;;;;;17.67;60.65;101206.91;5015399;28;20030;-89
2022/06/05 06:18:21;;;;;;;9.88;7.95;;;;;;;17.77;60.17;101196.38;5016090;28;20036;-89
2022/06/05 06:20:46;;;;;;;8.23;7.47;;;;;;;17.79;60.24;101191.72;5015897;28;20029;-91
2022/06/05 06:23:12;;;;;;;9.18;8.27;;;;;;;17.80;59.99;101194.28;5015224;28;20034;-90
2022/06/05 06:25:38;;;;;;;9.07;8.18;;;;;;;17.84;59.98;101192.22;5013937;28;20042;-90
2022/06/05 06:28:04;;;;;;;9.43;8.27;;;;;;;17.99;59.16;101174.91;5014938;28;20109;-89
2022/06/05 06:30:32;;;;;;;9.65;8.65;;;;;;;18.04;59.48;101169.16;5014788;28;20057;-90
2022/06/05 06:32:57;;;;;;;11.15;8.90;;;;;;;18.16;59.07;101170.91;5014251;28;20076;-88
2022/06/05 06:35:23;;;;;;;9.77;8.50;;;;;;;18.22;59.22;101159.63;5014686;28;20033;-90
2022/06/05 06:37:48;;;;;;;10.13;8.73;;;;;;;18.38;58.92;101157.47;5011784;28;20037;-91
2022/06/05 06:40:13;;;;;;;9.45;8.52;;;;;;;18.48;58.30;101146.84;5010254;28;20361;-91
2022/06/05 06:42:39;;;;;;;11.38;9.32;;;;;;;18.54;58.83;101148.16;5017510;28;20025;-90
2022/06/05 06:45:04;;;;;;;10.75;9.55;;;;;;;18.56;58.33;101143.50;5011080;28;20041;-90
2022/06/05 06:47:33;;;;;;;10.98;9.20;;;;;;;18.61;58.34;101144.00;5012589;28;20474;-92
2022/06/05 06:49:59;;;;;;;9.90;8.85;;;;;;;18.71;58.30;101163.88;5012411;28;20037;-92
2022/06/05 06:52:24;;;;;;;9.95;9.07;;;;;;;18.73;58.38;101159.25;5012587;28;20030;-91
2022/06/05 06:54:50;;;;;;;9.57;8.68;;;;;;;18.90;58.21;101163.28;5009552;28;20220;-93
2022/06/05 06:57:16;;;;;;;10.82;9.73;;;;;;;19.01;57.43;101165.94;5012951;28;20048;-92
2022/06/05 06:59:42;;;;;;;10.70;9.73;;;;;;;18.98;57.42;101154.53;5013676;28;20455;-92
2022/06/05 07:02:07;;;;;;;10.23;9.05;;;;;;;19.03;57.82;101157.75;5013234;28;20088;-91
2022/06/05 07:04:32;;;;;;;10.93;9.40;;;;;;;19.19;57.45;101147.41;5011378;28;20494;-92
2022/06/05 07:06:58;;;;;;;10.38;9.18;;;;;;;19.33;57.38;101143.56;5013310;28;20030;-91
2022/06/05 07:09:24;;;;;;;10.30;9.27;;;;;;;19.45;57.21;101139.00;5012419;28;20408;-92
2022/06/05 07:11:49;;;;;;;12.27;9.90;;;;;;;19.60;56.55;101129.59;5010632;28;20032;-92
2022/06/05 07:14:16;;;;;;;11.23;9.20;;;;;;;19.67;56.51;101136.22;5010025;28;20045;-92
2022/06/05 07:16:42;;;;;;;11.85;9.82;;;;;;;19.83;56.29;101131.25;5011022;28;20037;-90
2022/06/05 07:19:07;;;;;;;11.90;10.25;;;;;;;19.94;56.22;101130.34;5011729;28;20022;-92
2022/06/05 07:21:32;;;;;;;10.43;9.30;;;;;;;20.11;55.73;101121.63;5010565;28;20034;-91
2022/06/05 07:23:58;;;;;;;11.38;9.95;;;;;;;20.13;55.59;101125.03;5008690;28;20053;-93
2022/06/05 07:26:27;;;;;;;12.48;10.02;;;;;;;20.22;55.78;101117.13;5016524;28;20157;-91
2022/06/05 07:28:56;;;;;;;11.05;9.30;;;;;;;20.35;55.28;101117.75;4995947;28;20156;-92
2022/06/05 07:31:22;;;;;;;10.93;9.82;;;;;;;20.24;55.47;101116.00;5007418;28;20138;-92
2022/06/05 07:33:48;;;;;;;10.75;9.65;;;;;;;20.23;55.75;101111.59;5006926;28;20029;-91
2022/06/05 07:36:17;;;;;;;13.48;10.43;;;;;;;20.36;55.62;101114.09;5011140;28;20082;-91
2022/06/05 07:38:43;;;;;;;11.55;10.35;;;;;;;20.45;55.61;101115.13;5009929;28;20945;-91
2022/06/05 07:41:21;;;;;;;11.63;10.52;;;;;;;20.63;55.39;101114.38;5010368;28;20391;-92
2022/06/05 07:43:46;;;;;;;14.48;10.90;;;;;;;20.71;55.27;101105.56;5010956;28;20611;-90
2022/06/05 07:46:12;;;;;;;12.30;11.18;;;;;;;20.66;54.79;101102.44;5010779;28;20036;-92
2022/06/05 07:48:38;;;;;;;12.85;11.45;;;;;;;20.64;54.72;101104.41;5010217;28;20036;-92
2022/06/05 07:56:36;;;;;;;12.48;11.32;;;;;;;21.18;53.62;101103.13;5010257;28;20041;-92
2022/06/05 07:59:02;;;;;;;13.05;11.75;;;;;;;21.52;53.12;101086.50;5012940;28;20025;-92
2022/06/05 08:01:27;;;;;;;14.57;12.38;;;;;;;21.93;52.90;101089.88;5011558;28;20037;-92
2022/06/05 08:03:53;;;;;;;13.18;11.93;;;;;;;22.13;51.11;101078.88;5009333;28;20037;-91
2022/06/05 08:06:18;;;;;;;13.15;11.77;;;;;;;22.21;51.16;101071.88;5014559;28;20102;-91
2022/06/05 08:08:44;;;;;;;13.73;12.35;;;;;;;22.24;50.92;101069.72;5013668;28;20026;-92
2022/06/05 08:11:09;;;;;;;13.43;12.10;;;;;;;22.20;50.98;101071.03;5016666;28;20551;-92
2022/06/05 08:13:34;;;;;;;13.77;12.48;;;;;;;22.13;51.46;101075.31;5020511;28;20076;-90
2022/06/05 08:16:00;;;;;;;13.25;11.95;;;;;;;22.17;51.45;101071.31;5011141;28;20037;-91
2022/06/05 08:18:25;;;;;;;13.82;12.52;;;;;;;22.29;51.63;101072.84;5011366;28;20614;-91
2022/06/05 08:20:51;;;;;;;13.43;11.70;;;;;;;22.27;51.36;101073.97;5009768;28;20545;-93
2022/06/05 08:23:16;;;;;;;12.18;11.02;;;;;;;22.31;51.85;101053.69;5008070;28;20044;-91
2022/06/05 08:25:42;;;;;;;12.98;11.77;;;;;;;22.36;51.51;101060.41;5004101;28;20105;-91
2022/06/05 08:28:08;;;;;;;13.82;12.43;;;;;;;22.30;52.09;101055.56;4991796;28;20034;-91
2022/06/05 08:30:36;;;;;;;12.88;11.45;;;;;;;22.28;52.15;101064.81;4993430;28;20026;-92
2022/06/05 08:33:02;;;;;;;12.98;11.65;;;;;;;22.25;52.46;101060.56;4998049;28;20087;-91
2022/06/05 08:35:27;;;;;;;12.35;11.15;;;;;;;22.15;52.14;101064.31;5013218;28;20034;-93
2022/06/05 08:43:46;;;;;;;12.35;11.05;;;;;;;21.96;52.75;101074.19;5008481;28;20099;-92
2022/06/05 08:46:12;;;;;;;12.90;11.60;;;;;;;21.79;54.08;101077.66;5010269;28;20373;-92
2022/06/05 08:48:51;;;;;;;12.57;11.38;;;;;;;21.62;54.23;101073.81;5012839;28;20037;-94
2022/06/05 08:51:43;;;;;;;13.73;11.15;;;;;;;21.46;54.76;101070.84;5016011;28;20026;-92
2022/06/05 08:54:30;;;;;;;11.82;10.63;;;;;;;21.43;55.29;101084.66;5008605;28;20029;-90
2022/06/05 08:57:05;;;;;;;13.18;11.88;;;;;;;21.36;55.64;101085.22;5009938;28;20065;-91
2022/06/05 08:59:45;;;;;;;12.13;10.82;;;;;;;21.41;54.83;101081.25;5010374;28;20160;-91
2022/06/05 09:02:13;;;;;;;12.20;11.10;;;;;;;21.49;55.63;101084.09;5008292;28;20042;-91
2022/06/05 09:05:13;;;;;;;12.23;10.98;;;;;;;21.57;55.31;101078.78;4990383;28;20094;-92
2022/06/05 09:07:44;;;;;;;12.55;11.30;;;;;;;21.33;55.75;101087.34;4976176;28;20045;-91
2022/06/05 09:10:16;;;;;;;11.05;10.05;;;;;;;21.32;56.30;101086.50;4990599;28;20026;-91
2022/06/05 09:12:44;;;;;;;11.18;10.07;;;;;;;21.28;56.36;101081.50;4997056;28;20030;-93
2022/06/05 09:15:25;;;;;;;13.38;11.50;;;;;;;21.23;56.69;101079.19;5013668;28;20030;-90
2022/06/05 09:17:59;;;;;;;12.30;11.30;;;;;;;21.15;56.97;101081.72;5011137;28;20077;-91
2022/06/05 09:20:41;;;;;;;12.13;10.90;;;;;;;21.15;57.17;101073.63;5011072;28;20468;-90
2022/06/05 09:23:17;;;;;;;12.70;11.45;;;;;;;21.14;57.32;101075.47;5007176;28;20060;-91
2022/06/05 09:25:52;;;;;;;11.52;10.40;;;;;;;21.13;57.33;101065.66;5011701;28;20026;-91
2022/06/05 09:28:36;;;;;;;16.67;12.63;;;;;;;21.13;57.89;101073.75;5010524;28;20052;-91
2022/06/05 09:31:32;;;;;;;12.85;11.50;;;;;;;21.13;57.97;101076.47;5009675;28;20149;-90
2022/06/05 09:33:59;;;;;;;12.48;11.38;;;;;;;21.07;58.99;101070.78;5006722;28;20072;-92
2022/06/05 09:36:27;;;;;;;12.25;10.95;;;;;;;20.95;59.74;101063.78;5009565;28;20113;-90
2022/06/05 09:39:06;;;;;;;12.27;11.27;;;;;;;20.87;59.94;101062.63;5008608;28;20029;-92
2022/06/05 09:41:57;;;;;;;12.35;11.25;;;;;;;20.89;59.63;101054.34;5012182;28;20049;-91
2022/06/05 09:44:30;;;;;;;12.75;11.55;;;;;;;20.83;60.63;101052.22;5009459;28;20045;-93
2022/06/05 09:47:00;;;;;;;12.45;11.13;;;;;;;20.84;61.16;101048.50;5008807;28;20022;-92
2022/06/05 09:49:34;;;;;;;12.32;11.13;;;;;;;20.92;61.23;101045.13;5008973;28;20034;-92
2022/06/05 09:52:13;;;;;;;12.30;11.18;;;;;;;20.94;60.98;101041.25;5007362;28;20022;-92
2022/06/05 09:54:44;;;;;;;12.45;11.27;;;;;;;20.82;62.05;101027.03;5008753;28;20545;-91
2022/06/05 10:00:41;;;;;;;12.20;11.02;;;;;;;20.83;61.49;101027.88;5009568;28;20040;-93
2022/06/05 10:03:11;;;;;;;13.05;11.85;;;;;;;20.67;62.62;101027.56;4986386;28;20134;-91
2022/06/05 10:05:40;;;;;;;13.57;12.00;;;;;;;20.65;63.89;101019.59;5009470;28;20049;-92
2022/06/05 10:08:21;;;;;;;12.20;11.00;;;;;;;20.67;63.91;101017.59;5009046;28;20080;-92
2022/06/05 10:10:49;;;;;;;13.75;12.45;;;;;;;20.61;64.88;101020.88;5012401;28;20053;-93
2022/06/05 10:13:20;;;;;;;12.93;11.63;;;;;;;20.57;65.42;101011.31;5009407;28;20534;-92
2022/06/05 10:15:58;;;;;;;13.50;12.18;;;;;;;20.53;65.86;101015.28;5011705;28;20045;-92
2022/06/05 10:18:30;;;;;;;12.93;11.80;;;;;;;20.36;65.91;101014.91;5012216;28;20030;-92
2022/06/05 10:21:04;;;;;;;13.45;12.35;;;;;;;20.34;67.01;101011.47;5011936;28;20539;-93
2022/06/05 10:23:43;;;;;;;13.30;12.10;;;;;;;20.35;68.17;101007.78;5010825;28;20080;-93
2022/06/05 10:26:28;;;;;;;14.15;12.80;;;;;;;20.24;67.68;101012.47;5012608;28;20018;-92
2022/06/05 10:29:20;;;;;;;14.15;12.75;;;;;;;20.15;68.00;101011.44;5013139;28;20041;-95
2022/06/05 10:32:02;;;;;;;14.75;13.25;;;;;;;20.03;70.63;101013.38;5010601;28;20579;-92
2022/06/05 10:34:49;;;;;;;13.93;12.73;;;;;;;19.87;71.27;101011.13;5013607;28;20292;-92
2022/06/05 10:37:24;;;;;;;14.07;12.88;;;;;;;19.56;72.82;101006.63;5013979;28;20030;-92
2022/06/05 10:39:54;;;;;;;15.18;13.77;;;;;;;19.32;72.83;101006.94;5012283;28;20373;-93
2022/06/05 10:42:33;;;;;;;14.65;13.35;;;;;;;19.17;72.86;101003.66;5012309;28;20037;-92
2022/06/05 10:45:16;;;;;;;15.40;14.00;;;;;;;19.10;74.26;101006.03;5012342;28;20030;-92
2022/06/05 10:48:11;;;;;;;16.05;14.45;;;;;;;19.12;73.54;101011.28;5011477;28;20033;-92
2022/06/05 10:50:48;;;;;;;15.80;14.40;;;;;;;19.17;75.44;101012.63;4996161;28;20376;-92
2022/06/05 10:53:28;;;;;;;15.85;14.45;;;;;;;19.08;75.67;101009.84;5011219;28;20034;-93
2022/06/05 10:56:12;;;;;;;16.25;14.65;;;;;;;18.90;77.43;101009.56;5011407;28;20022;-92
2022/06/05 10:58:55;;;;;;;16.73;15.02;;;;;;;18.82;79.48;101012.88;5011121;28;20498;-92
2022/06/05 11:02:01;;;;;;;19.67;17.07;;;;;;;18.71;82.39;101015.59;5010343;28;20029;-89
2022/06/05 11:04:55;;;;;;;20.48;17.55;;;;;;;18.55;86.83;101010.56;5011198;28;20639;-89
2022/06/05 11:07:41;;;;;;;21.88;19.55;;;;;;;18.22;87.22;101005.22;5011506;28;20040;-90
2022/06/05 11:13:45;;;;;;;23.05;20.83;;;;;;;17.83;94.32;101002.88;5009977;28;20118;-88
2022/06/05 11:16:20;;;;;;;23.58;21.38;;;;;;;17.72;94.97;100997.44;5011012;28;20037;-90
2022/06/05 11:18:49;;;;;;;26.42;23.33;;;;;;;17.66;96.79;100996.09;5010907;28;20112;-88
2022/06/05 11:21:21;;;;;;;25.95;23.25;;;;;;;17.64;97.59;100987.31;5005233;28;20032;-90
2022/06/05 11:23:51;;;;;;;26.90;24.20;;;;;;;17.72;98.69;100986.69;4990285;28;20028;-88
2022/06/05 11:26:35;;;;;;;28.77;25.88;;;;;;;17.80;99.25;100973.50;4991710;28;20117;-89
2022/06/05 11:29:11;;;;;;;29.58;26.67;;;;;;;17.86;100.00;100962.25;4991736;28;20064;-89
2022/06/05 11:31:54;;;;;;;28.02;25.13;;;;;;;17.88;99.54;100975.59;4995954;28;20037;-88
2022/06/05 11:34:27;;;;;;;30.30;27.30;;;;;;;17.79;100.00;100979.88;5010583;28;20097;-88
2022/06/05 11:36:57;;;;;;;32.58;29.23;;;;;;;17.83;100.00;100969.72;5009474;28;20026;-88
2022/06/05 11:39:48;;;;;;;32.38;29.10;;;;;;;17.88;100.00;100971.06;5010090;28;20030;-89
2022/06/05 11:42:26;;;;;;;32.53;29.27;;;;;;;18.01;100.00;100967.38;5009095;28;20048;-88
2022/06/05 11:45:17;;;;;;;31.85;28.65;;;;;;;18.15;100.00;100962.63;5009694;28;20033;-89
2022/06/05 11:47:54;;;;;;;32.10;28.67;;;;;;;18.26;100.00;100961.72;5009823;28;20113;-89
2022/06/05 11:50:39;;;;;;;32.25;29.15;;;;;;;18.23;100.00;100955.75;5010263;28;20025;-88
2022/06/05 11:53:10;;;;;;;29.10;26.17;;;;;;;18.17;100.00;100962.47;5009028;28;20045;-88
2022/06/05 11:56:17;;;;;;;30.45;27.27;;;;;;;18.07;100.00;100953.44;5015054;28;20380;-89
2022/06/05 11:58:56;;;;;;;28.60;25.70;;;;;;;18.06;100.00;100947.22;4968293;28;20058;-89
2022/06/05 12:01:27;;;;;;;29.50;26.48;;;;;;;17.97;100.00;100933.59;4966614;28;20043;-89
2022/06/05 12:04:06;;;;;;;27.63;24.90;;;;;;;17.98;100.00;100943.41;4967851;28;20053;-89